createdAt,value
2022-09-01T00:00:01.959Z,20.99
2022-09-01T00:02:09.529Z,20.98
2022-09-01T00:04:16.014Z,20.97
2022-09-01T00:06:22.775Z,20.99
2022-09-01T00:08:26.303Z,21.00
2022-09-01T00:10:30.562Z,21.03
2022-09-01T00:12:34.451Z,20.95
2022-09-01T00:14:41.576Z,20.95
2022-09-01T00:16:45.135Z,20.91
2022-09-01T00:18:53.448Z,20.70
2022-09-01T00:20:59.229Z,20.79
2022-09-01T00:23:03.964Z,20.79
2022-09-01T00:25:08.980Z,20.77
2022-09-01T00:27:12.411Z,20.71
2022-09-01T00:29:17.388Z,20.76
2022-09-01T00:31:22.450Z,20.76
2022-09-01T00:33:26.016Z,20.77
2022-09-01T00:35:29.594Z,20.88
2022-09-01T00:37:33.038Z,20.85
2022-09-01T00:39:37.864Z,20.82
2022-09-01T00:41:44.883Z,20.64
2022-09-01T00:43:51.032Z,20.73
2022-09-01T00:45:54.830Z,20.74
2022-09-01T00:47:58.650Z,20.66
2022-09-01T00:50:03.811Z,20.65
2022-09-01T00:52:10.711Z,20.58
2022-09-01T00:54:20.848Z,20.51
2022-09-01T00:56:25.871Z,20.50
2022-09-01T00:58:30.074Z,20.48
2022-09-01T01:00:40.879Z,20.41
2022-09-01T01:02:46.211Z,20.42
2022-09-01T01:04:49.742Z,20.35
2022-09-01T01:07:01.673Z,20.45
2022-09-01T01:09:05.245Z,20.33
2022-09-01T01:11:17.717Z,20.06
2022-09-01T01:13:26.009Z,19.93
2022-09-01T01:15:30.667Z,19.68
2022-09-01T01:17:34.568Z,19.60
2022-09-01T01:20:00.430Z,19.36
2022-09-01T01:22:26.801Z,19.33
2022-09-01T01:24:35.567Z,19.34
2022-09-01T01:26:39.873Z,19.41
2022-09-01T01:28:44.416Z,19.40
2022-09-01T01:30:52.406Z,19.44
2022-09-01T01:32:57.826Z,19.52
2022-09-01T01:35:05.837Z,19.61
2022-09-01T01:37:10.822Z,19.58
2022-09-01T01:39:17.463Z,19.66
2022-09-01T01:41:24.209Z,19.69
2022-09-01T01:43:29.004Z,19.70
2022-09-01T01:45:33.277Z,19.61
2022-09-01T01:47:37.095Z,19.76
2022-09-01T01:49:43.850Z,19.82
2022-09-01T01:51:48.352Z,19.85
2022-09-01T01:53:52.981Z,19.85
2022-09-01T01:55:58.437Z,19.73
2022-09-01T01:58:09.455Z,19.72
2022-09-01T02:00:15.209Z,19.71
2022-09-01T02:02:18.780Z,19.71
2022-09-01T02:04:23.291Z,19.61
2022-09-01T02:06:29.950Z,19.65
2022-09-01T02:08:36.105Z,19.65
2022-09-01T02:10:42.605Z,19.69
2022-09-01T02:12:46.330Z,19.71
2022-09-01T02:14:51.034Z,19.68
2022-09-01T02:16:56.029Z,19.72
2022-09-01T02:19:00.976Z,19.72
2022-09-01T02:21:11.141Z,19.66
2022-09-01T02:23:20.134Z,19.66
2022-09-01T02:25:23.743Z,19.71
2022-09-01T02:27:29.557Z,19.78
2022-09-01T02:29:37.039Z,19.71
2022-09-01T02:31:50.086Z,19.62
2022-09-01T02:33:54.485Z,19.67
2022-09-01T02:36:00.177Z,19.71
2022-09-01T02:38:03.680Z,19.69
2022-09-01T02:40:11.210Z,19.66
2022-09-01T02:42:15.033Z,19.62
2022-09-01T02:44:19.970Z,19.65
2022-09-01T02:46:24.416Z,19.57
2022-09-01T02:48:34.106Z,19.42
2022-09-01T02:50:38.032Z,19.42
2022-09-01T02:52:41.859Z,19.45
2022-09-01T02:54:45.860Z,19.40
2022-09-01T02:56:49.965Z,19.51
2022-09-01T02:58:54.675Z,19.53
2022-09-01T03:01:00.341Z,19.52
2022-09-01T03:03:08.025Z,19.36
2022-09-01T03:05:16.375Z,19.59
2022-09-01T03:07:21.801Z,19.64
2022-09-01T03:09:25.305Z,19.71
2022-09-01T03:11:30.551Z,19.69
2022-09-01T03:13:34.470Z,19.68
2022-09-01T03:15:38.650Z,19.71
2022-09-01T03:17:42.499Z,19.75
2022-09-01T03:19:46.741Z,19.74
2022-09-01T03:21:51.755Z,19.79
2022-09-01T03:24:02.080Z,19.75
2022-09-01T03:26:06.176Z,19.72
2022-09-01T03:28:10.147Z,19.75
2022-09-01T03:30:15.458Z,19.81
2022-09-01T03:32:21.446Z,19.85
2022-09-01T03:34:25.076Z,19.87
2022-09-01T03:36:33.312Z,19.74
2022-09-01T03:38:38.118Z,19.86
2022-09-01T03:40:42.167Z,19.90
2022-09-01T03:42:46.525Z,19.91
2022-09-01T03:44:51.926Z,19.87
2022-09-01T03:46:55.367Z,19.91
2022-09-01T03:49:02.140Z,19.91
2022-09-01T03:51:06.597Z,19.94
2022-09-01T03:53:11.340Z,19.87
2022-09-01T03:55:19.712Z,19.90
2022-09-01T03:57:23.347Z,19.92
2022-09-01T03:59:28.495Z,19.90
2022-09-01T04:01:37.889Z,19.77
2022-09-01T04:03:44.886Z,19.64
2022-09-01T04:05:50.970Z,19.48
2022-09-01T04:07:56.559Z,19.53
2022-09-01T04:10:00.025Z,19.45
2022-09-01T04:12:08.996Z,19.38
2022-09-01T04:14:14.810Z,19.33
2022-09-01T04:16:42.488Z,19.36
2022-09-01T04:18:48.980Z,19.34
2022-09-01T04:20:54.404Z,19.18
2022-09-01T04:22:58.286Z,19.06
2022-09-01T04:25:02.203Z,18.98
2022-09-01T04:27:08.979Z,18.82
2022-09-01T04:29:12.752Z,18.77
2022-09-01T04:31:19.447Z,18.84
2022-09-01T04:33:28.585Z,18.89
2022-09-01T04:35:37.734Z,18.89
2022-09-01T04:37:41.955Z,18.86
2022-09-01T04:39:55.576Z,18.89
2022-09-01T04:42:00.025Z,18.82
2022-09-01T04:44:06.582Z,18.79
2022-09-01T04:46:14.440Z,18.75
2022-09-01T04:48:19.445Z,18.75
2022-09-01T04:50:27.433Z,18.54
2022-09-01T04:52:51.140Z,18.32
2022-09-01T04:55:04.926Z,18.31
2022-09-01T04:57:09.585Z,18.28
2022-09-01T04:59:15.762Z,18.41
2022-09-01T05:01:26.128Z,18.56
2022-09-01T05:03:31.943Z,18.51
2022-09-01T05:05:53.982Z,18.42
2022-09-01T05:07:57.925Z,18.39
2022-09-01T05:10:02.187Z,18.44
2022-09-01T05:12:23.559Z,18.31
2022-09-01T05:14:28.920Z,18.39
2022-09-01T05:16:33.483Z,18.35
2022-09-01T05:18:36.923Z,18.38
2022-09-01T05:20:42.624Z,18.32
2022-09-01T05:22:46.111Z,18.40
2022-09-01T05:24:51.429Z,18.41
2022-09-01T05:27:00.508Z,18.55
2022-09-01T05:29:10.618Z,18.59
2022-09-01T05:31:19.623Z,18.61
2022-09-01T05:33:23.591Z,18.62
2022-09-01T05:35:32.823Z,18.87
2022-09-01T05:37:38.452Z,19.22
2022-09-01T05:39:42.052Z,19.30
2022-09-01T05:41:48.082Z,19.10
2022-09-01T05:43:59.388Z,18.94
2022-09-01T05:46:08.730Z,18.81
2022-09-01T05:48:23.613Z,18.77
2022-09-01T05:50:28.274Z,18.85
2022-09-01T05:52:35.125Z,18.87
2022-09-01T05:54:38.590Z,18.78
2022-09-01T05:56:45.104Z,18.79
2022-09-01T06:01:22.135Z,18.95
2022-09-01T06:03:31.303Z,19.22
2022-09-01T06:05:45.051Z,19.38
2022-09-01T06:07:49.329Z,19.35
2022-09-01T06:09:53.640Z,19.05
2022-09-01T06:11:59.576Z,19.08
2022-09-01T06:14:03.240Z,19.05
2022-09-01T06:16:08.170Z,19.36
2022-09-01T06:18:13.125Z,19.35
2022-09-01T06:20:27.756Z,19.12
2022-09-01T06:22:32.472Z,19.59
2022-09-01T06:24:36.782Z,19.73
2022-09-01T06:26:40.619Z,19.57
2022-09-01T06:28:44.572Z,19.32
2022-09-01T06:30:49.088Z,19.38
2022-09-01T06:32:53.846Z,19.42
2022-09-01T06:35:00.405Z,19.61
2022-09-01T06:37:07.012Z,19.66
2022-09-01T06:39:19.532Z,19.78
2022-09-01T06:41:26.721Z,19.64
2022-09-01T06:43:31.803Z,19.50
2022-09-01T06:45:40.720Z,19.39
2022-09-01T06:47:45.400Z,19.31
2022-09-01T06:49:48.762Z,19.50
2022-09-01T06:51:55.705Z,19.73
2022-09-01T06:54:03.032Z,19.64
2022-09-01T06:56:11.065Z,19.65
2022-09-01T06:58:16.742Z,19.55
2022-09-01T07:00:28.753Z,19.62
2022-09-01T07:02:33.850Z,19.58
2022-09-01T07:04:53.651Z,19.76
2022-09-01T07:07:53.218Z,19.75
2022-09-01T07:12:28.147Z,19.89
2022-09-01T07:14:32.968Z,19.93
2022-09-01T07:16:41.885Z,19.95
2022-09-01T07:19:01.405Z,19.87
2022-09-01T07:21:36.728Z,19.91
2022-09-01T07:23:46.263Z,19.89
2022-09-01T07:26:02.593Z,19.97
2022-09-01T07:28:15.677Z,20.11
2022-09-01T07:30:24.265Z,20.22
2022-09-01T07:32:47.505Z,20.22
2022-09-01T07:34:52.436Z,20.26
2022-09-01T07:38:03.344Z,20.24
2022-09-01T07:39:54.908Z,20.16
2022-09-01T07:45:25.380Z,20.63
2022-09-01T07:47:52.812Z,20.70
2022-09-01T07:50:37.434Z,20.63
2022-09-01T07:52:22.628Z,20.63
2022-09-01T07:54:33.936Z,20.75
2022-09-01T07:56:40.201Z,20.73
2022-09-01T07:58:48.735Z,20.81
2022-09-01T08:00:54.416Z,21.00
2022-09-01T08:02:59.026Z,20.94
2022-09-01T08:05:02.624Z,21.14
2022-09-01T08:07:06.537Z,21.29
2022-09-01T08:09:11.965Z,21.29
2022-09-01T08:13:59.060Z,21.29
2022-09-01T08:16:08.765Z,21.44
2022-09-01T08:18:21.234Z,21.53
2022-09-01T08:20:25.978Z,21.56
2022-09-01T08:22:35.346Z,21.76
2022-09-01T08:24:48.088Z,21.69
2022-09-01T08:26:51.553Z,21.86
2022-09-01T08:28:56.456Z,21.88
2022-09-01T08:31:15.917Z,22.06
2022-09-01T08:33:19.429Z,22.12
2022-09-01T08:35:24.024Z,22.21
2022-09-01T08:37:29.329Z,22.32
2022-09-01T08:39:33.022Z,22.47
2022-09-01T08:41:59.887Z,22.61
2022-09-01T08:44:15.371Z,22.57
2022-09-01T08:46:26.474Z,22.65
2022-09-01T08:51:15.094Z,22.66
2022-09-01T08:53:46.942Z,22.74
2022-09-01T08:55:55.976Z,22.85
2022-09-01T08:58:04.849Z,22.81
2022-09-01T09:00:50.558Z,22.98
2022-09-01T09:03:13.731Z,22.81
2022-09-01T09:05:32.007Z,22.87
2022-09-01T09:07:51.788Z,22.92
2022-09-01T09:10:00.382Z,23.17
2022-09-01T09:12:23.881Z,23.28
2022-09-01T09:14:43.026Z,23.36
2022-09-01T09:16:51.573Z,23.35
2022-09-01T09:19:01.365Z,23.39
2022-09-01T09:21:13.014Z,23.58
2022-09-01T09:23:25.902Z,23.46
2022-09-01T09:25:31.060Z,23.26
2022-09-01T09:27:37.047Z,23.11
2022-09-01T09:29:40.488Z,23.28
2022-09-01T09:31:49.945Z,23.11
2022-09-01T09:33:55.417Z,23.19
2022-09-01T09:36:19.114Z,23.48
2022-09-01T09:38:30.310Z,23.64
2022-09-01T09:40:47.930Z,23.73
2022-09-01T09:43:04.384Z,23.82
2022-09-01T09:45:22.772Z,23.94
2022-09-01T09:47:43.903Z,23.93
2022-09-01T09:49:49.547Z,24.09
2022-09-01T09:51:58.805Z,24.14
2022-09-01T09:54:13.816Z,24.37
2022-09-01T09:56:20.220Z,24.48
2022-09-01T09:58:26.552Z,24.35
2022-09-01T10:00:32.320Z,24.46
2022-09-01T10:02:38.904Z,24.42
2022-09-01T10:04:43.251Z,24.53
2022-09-01T10:06:48.096Z,24.41
2022-09-01T10:08:51.673Z,24.31
2022-09-01T10:10:58.275Z,24.40
2022-09-01T10:13:03.202Z,24.31
2022-09-01T10:15:14.121Z,24.24
2022-09-01T10:17:22.625Z,24.29
2022-09-01T10:19:35.108Z,23.98
2022-09-01T10:21:41.347Z,24.46
2022-09-01T10:23:46.136Z,24.49
2022-09-01T10:25:52.948Z,24.40
2022-09-01T10:27:59.876Z,24.38
2022-09-01T10:30:19.144Z,24.68
2022-09-01T10:32:36.892Z,24.91
2022-09-01T10:34:42.035Z,25.23
2022-09-01T10:36:47.590Z,24.87
2022-09-01T10:39:04.972Z,24.52
2022-09-01T10:41:14.741Z,24.57
2022-09-01T10:43:38.788Z,24.87
2022-09-01T10:45:43.921Z,25.10
2022-09-01T10:47:47.759Z,25.59
2022-09-01T10:50:07.636Z,25.94
2022-09-01T10:52:14.364Z,25.95
2022-09-01T10:54:57.170Z,26.46
2022-09-01T10:57:08.982Z,26.49
2022-09-01T10:59:38.969Z,26.35
2022-09-01T11:05:05.245Z,25.94
2022-09-01T11:07:57.975Z,26.07
2022-09-01T11:10:37.019Z,26.43
2022-09-01T11:12:51.065Z,26.81
2022-09-01T11:14:57.808Z,26.63
2022-09-01T11:17:17.210Z,26.98
2022-09-01T11:19:41.432Z,27.02
2022-09-01T11:21:46.017Z,26.71
2022-09-01T11:23:49.458Z,26.32
2022-09-01T11:28:38.370Z,26.12
2022-09-01T11:30:52.842Z,25.78
2022-09-01T11:33:03.445Z,25.90
2022-09-01T11:35:18.099Z,25.77
2022-09-01T11:37:27.585Z,25.86
2022-09-01T11:39:38.319Z,25.79
2022-09-01T11:41:57.431Z,25.75
2022-09-01T11:44:14.866Z,25.73
2022-09-01T11:46:24.283Z,25.57
2022-09-01T11:48:28.009Z,25.47
2022-09-01T11:50:33.569Z,25.71
2022-09-01T11:52:39.247Z,26.25
2022-09-01T11:54:46.454Z,26.59
2022-09-01T11:56:51.393Z,26.31
2022-09-01T11:58:54.844Z,26.61
2022-09-01T12:01:11.718Z,26.40
2022-09-01T12:03:22.944Z,26.78
2022-09-01T12:05:31.130Z,27.16
2022-09-01T12:07:40.876Z,27.26
2022-09-01T12:09:47.931Z,27.25
2022-09-01T12:11:52.809Z,27.48
2022-09-01T12:13:58.815Z,27.84
2022-09-01T12:16:17.880Z,27.98
2022-09-01T12:18:25.158Z,27.47
2022-09-01T12:20:31.028Z,27.58
2022-09-01T12:22:35.477Z,27.89
2022-09-01T12:24:38.947Z,27.79
2022-09-01T12:26:43.221Z,27.36
2022-09-01T12:28:49.812Z,27.04
2022-09-01T12:30:55.461Z,26.69
2022-09-01T12:35:27.088Z,26.12
2022-09-01T12:37:31.165Z,25.97
2022-09-01T12:39:36.007Z,25.88
2022-09-01T12:41:40.962Z,25.82
2022-09-01T12:43:45.595Z,25.84
2022-09-01T12:45:50.763Z,25.67
2022-09-01T12:47:54.325Z,25.49
2022-09-01T12:49:57.737Z,26.26
2022-09-01T12:52:14.703Z,26.18
2022-09-01T12:54:26.185Z,26.25
2022-09-01T12:56:31.973Z,26.03
2022-09-01T12:58:35.790Z,25.87
2022-09-01T13:00:58.390Z,25.74
2022-09-01T13:03:09.499Z,25.78
2022-09-01T13:05:21.053Z,25.88
2022-09-01T13:07:24.637Z,25.88
2022-09-01T13:09:28.157Z,26.46
2022-09-01T13:12:05.944Z,26.44
2022-09-01T13:13:55.209Z,26.43
2022-09-01T13:16:04.738Z,26.23
2022-09-01T13:18:08.155Z,25.78
2022-09-01T13:20:13.744Z,25.59
2022-09-01T13:22:17.599Z,25.55
2022-09-01T13:24:24.434Z,25.86
2022-09-01T13:26:31.423Z,25.87
2022-09-01T13:28:37.482Z,25.97
2022-09-01T13:30:45.222Z,25.79
2022-09-01T13:35:15.271Z,25.87
2022-09-01T13:37:18.718Z,26.58
2022-09-01T13:39:23.020Z,27.36
2022-09-01T13:41:26.544Z,27.08
2022-09-01T13:43:31.784Z,26.61
2022-09-01T13:45:35.277Z,26.88
2022-09-01T13:48:15.091Z,27.47
2022-09-01T13:50:07.524Z,27.67
2022-09-01T13:52:13.037Z,28.21
2022-09-01T13:54:16.605Z,28.23
2022-09-01T13:56:20.044Z,27.84
2022-09-01T13:58:23.554Z,27.70
2022-09-01T14:00:31.897Z,27.82
2022-09-01T14:02:35.415Z,28.37
2022-09-01T14:04:39.055Z,29.03
2022-09-01T14:06:44.632Z,29.20
2022-09-01T14:08:48.303Z,30.05
2022-09-01T14:10:53.629Z,30.07
2022-09-01T14:12:57.291Z,30.34
2022-09-01T14:15:18.379Z,30.22
2022-09-01T14:17:24.067Z,29.76
2022-09-01T14:19:28.257Z,29.74
2022-09-01T14:21:31.852Z,29.64
2022-09-01T14:23:36.661Z,29.12
2022-09-01T14:25:44.214Z,28.51
2022-09-01T14:27:48.962Z,28.58
2022-09-01T14:29:54.848Z,28.48
2022-09-01T14:31:58.622Z,28.07
2022-09-01T14:34:02.259Z,27.49
2022-09-01T14:36:06.608Z,27.63
2022-09-01T14:38:11.586Z,27.57
2022-09-01T14:40:18.414Z,27.34
2022-09-01T14:42:23.947Z,27.50
2022-09-01T14:44:27.420Z,27.65
2022-09-01T14:46:34.319Z,27.84
2022-09-01T14:48:39.679Z,27.64
2022-09-01T14:50:47.359Z,27.27
2022-09-01T14:52:53.087Z,27.80
2022-09-01T14:54:57.390Z,28.03
2022-09-01T14:59:26.328Z,29.06
2022-09-01T15:01:34.618Z,28.12
2022-09-01T15:03:38.872Z,29.04
2022-09-01T15:05:42.554Z,29.38
2022-09-01T15:07:46.834Z,29.58
2022-09-01T15:09:50.525Z,29.53
2022-09-01T15:11:54.190Z,30.19
2022-09-01T15:13:59.397Z,30.48
2022-09-01T15:16:04.875Z,30.76
2022-09-01T15:18:08.505Z,30.43
2022-09-01T15:20:29.768Z,30.71
2022-09-01T15:22:33.487Z,30.34
2022-09-01T15:24:37.527Z,29.69
2022-09-01T15:26:41.810Z,29.37
2022-09-01T15:28:45.602Z,29.62
2022-09-01T15:30:51.070Z,29.16
2022-09-01T15:32:57.840Z,28.53
2022-09-01T15:35:01.225Z,28.62
2022-09-01T15:37:04.821Z,28.41
2022-09-01T15:39:10.234Z,28.19
2022-09-01T15:41:17.614Z,29.22
2022-09-01T15:43:21.541Z,29.01
2022-09-01T15:45:26.663Z,28.80
2022-09-01T15:47:32.199Z,28.98
2022-09-01T15:49:35.642Z,29.52
2022-09-01T15:51:40.138Z,29.93
2022-09-01T15:53:43.526Z,29.67
2022-09-01T15:55:49.448Z,29.78
2022-09-01T15:57:54.201Z,30.19
2022-09-01T15:59:57.594Z,29.68
2022-09-01T16:02:01.988Z,29.15
2022-09-01T16:04:09.058Z,29.14
2022-09-01T16:06:14.575Z,29.14
2022-09-01T16:08:19.575Z,28.94
2022-09-01T16:10:23.749Z,28.41
2022-09-01T16:12:28.875Z,28.23
2022-09-01T16:14:32.747Z,28.04
2022-09-01T16:16:52.585Z,27.73
2022-09-01T16:18:59.496Z,27.44
2022-09-01T16:21:17.005Z,27.41
2022-09-01T16:23:23.053Z,27.33
2022-09-01T16:25:31.393Z,27.16
2022-09-01T16:27:37.368Z,26.81
2022-09-01T16:29:46.273Z,26.71
2022-09-01T16:31:54.799Z,26.74
2022-09-01T16:34:02.113Z,26.81
2022-09-01T16:36:21.881Z,26.86
2022-09-01T16:38:36.064Z,26.86
2022-09-01T16:40:48.202Z,26.90
2022-09-01T16:42:58.180Z,26.64
2022-09-01T16:45:07.523Z,27.07
2022-09-01T16:47:37.335Z,27.34
2022-09-01T16:49:48.171Z,27.26
2022-09-01T16:52:04.293Z,27.10
2022-09-01T16:54:20.812Z,27.71
2022-09-01T16:56:29.534Z,27.74
2022-09-01T16:58:43.603Z,27.85
2022-09-01T17:01:06.511Z,28.06
2022-09-01T17:03:17.881Z,28.10
2022-09-01T17:05:30.255Z,27.92
2022-09-01T17:07:45.815Z,27.57
2022-09-01T17:10:03.601Z,27.74
2022-09-01T17:12:23.190Z,27.67
2022-09-01T17:14:39.879Z,27.89
2022-09-01T17:16:49.265Z,27.90
2022-09-01T17:18:56.817Z,27.79
2022-09-01T17:21:03.929Z,27.60
2022-09-01T17:23:15.470Z,27.18
2022-09-01T17:25:32.648Z,26.80
2022-09-01T17:27:40.021Z,26.68
2022-09-01T17:29:45.986Z,26.67
2022-09-01T17:31:59.885Z,26.55
2022-09-01T17:34:18.678Z,26.46
2022-09-01T17:36:30.855Z,26.46
2022-09-01T17:38:54.292Z,26.45
2022-09-01T17:41:10.491Z,26.35
2022-09-01T17:43:21.106Z,26.29
2022-09-01T17:45:29.078Z,26.12
2022-09-01T17:47:40.814Z,26.21
2022-09-01T17:49:51.781Z,26.12
2022-09-01T17:52:02.926Z,26.18
2022-09-01T17:54:18.704Z,26.03
2022-09-01T17:56:37.184Z,25.83
2022-09-01T17:58:50.695Z,25.67
2022-09-01T18:01:01.592Z,25.57
2022-09-01T18:03:18.835Z,25.59
2022-09-01T18:05:24.750Z,25.70
2022-09-01T18:07:41.152Z,25.72
2022-09-01T18:09:53.460Z,25.75
2022-09-01T18:12:02.294Z,25.75
2022-09-01T18:14:13.450Z,25.83
2022-09-01T18:16:18.817Z,25.73
2022-09-01T18:18:29.316Z,25.67
2022-09-01T18:20:41.471Z,25.61
2022-09-01T18:22:51.389Z,25.33
2022-09-01T18:25:02.103Z,25.25
2022-09-01T18:27:07.910Z,24.99
2022-09-01T18:29:11.524Z,24.80
2022-09-01T18:31:34.029Z,24.89
2022-09-01T18:33:46.782Z,24.96
2022-09-01T18:36:00.471Z,24.96
2022-09-01T18:38:16.665Z,25.00
2022-09-01T18:40:29.841Z,24.97
2022-09-01T18:42:36.371Z,24.92
2022-09-01T18:44:49.123Z,24.65
2022-09-01T18:46:57.656Z,24.39
2022-09-01T18:49:11.173Z,24.20
2022-09-01T18:51:23.263Z,24.34
2022-09-01T18:53:35.985Z,24.03
2022-09-01T18:55:50.137Z,23.78
2022-09-01T18:57:56.532Z,23.77
2022-09-01T19:00:18.628Z,23.90
2022-09-01T19:02:36.150Z,24.01
2022-09-01T19:04:42.279Z,23.97
2022-09-01T19:06:59.754Z,23.91
2022-09-01T19:09:14.337Z,24.05
2022-09-01T19:11:30.815Z,24.04
2022-09-01T19:13:47.927Z,24.09
2022-09-01T19:16:03.110Z,24.15
2022-09-01T19:18:18.800Z,24.03
2022-09-01T19:20:26.747Z,24.12
2022-09-01T19:22:40.326Z,24.06
2022-09-01T19:24:48.134Z,23.62
2022-09-01T19:26:59.652Z,23.51
2022-09-01T19:29:09.296Z,23.45
2022-09-01T19:31:22.122Z,23.56
2022-09-01T19:33:33.584Z,23.02
2022-09-01T19:35:41.424Z,23.28
2022-09-01T19:37:50.567Z,23.40
2022-09-01T19:39:54.683Z,23.48
2022-09-01T19:42:04.658Z,23.23
2022-09-01T19:44:15.625Z,23.22
2022-09-01T19:46:28.932Z,23.26
2022-09-01T19:48:38.968Z,23.29
2022-09-01T19:50:47.885Z,23.37
2022-09-01T19:52:56.911Z,23.36
2022-09-01T19:55:05.963Z,23.38
2022-09-01T19:57:17.859Z,23.39
2022-09-01T19:59:28.219Z,23.32
2022-09-01T20:01:40.845Z,23.28
2022-09-01T20:03:50.012Z,23.36
2022-09-01T20:05:57.091Z,23.44
2022-09-01T20:08:03.772Z,23.38
2022-09-01T20:10:23.185Z,23.36
2022-09-01T20:12:34.868Z,23.25
2022-09-01T20:14:53.502Z,23.23
2022-09-01T20:17:00.876Z,23.24
2022-09-01T20:19:10.432Z,23.26
2022-09-01T20:21:20.708Z,23.27
2022-09-01T20:23:28.621Z,23.27
2022-09-01T20:25:41.361Z,23.24
2022-09-01T20:27:56.064Z,23.16
2022-09-01T20:30:04.981Z,23.06
2022-09-01T20:32:11.017Z,23.01
2022-09-01T20:34:22.452Z,23.01
2022-09-01T20:36:31.868Z,22.95
2022-09-01T20:39:00.606Z,22.94
2022-09-01T20:41:09.791Z,22.86
2022-09-01T20:43:22.520Z,22.88
2022-09-01T20:45:28.349Z,22.74
2022-09-01T20:47:36.399Z,22.54
2022-09-01T20:49:41.069Z,22.53
2022-09-01T20:51:51.622Z,22.35
2022-09-01T20:54:09.103Z,22.34
2022-09-01T20:56:20.802Z,22.14
2022-09-01T20:58:32.923Z,22.00
2022-09-01T21:00:46.908Z,21.86
2022-09-01T21:02:59.821Z,21.92
2022-09-01T21:05:12.681Z,22.04
2022-09-01T21:07:20.431Z,21.93
2022-09-01T21:09:34.687Z,21.84
2022-09-01T21:11:43.440Z,21.77
2022-09-01T21:13:59.562Z,21.70
2022-09-01T21:16:12.664Z,21.67
2022-09-01T21:18:32.999Z,21.79
2022-09-01T21:20:51.006Z,21.79
2022-09-01T21:22:55.885Z,21.66
2022-09-01T21:24:59.278Z,21.71
2022-09-01T21:27:07.567Z,21.70
2022-09-01T21:29:27.877Z,21.56
2022-09-01T21:31:31.988Z,21.49
2022-09-01T21:33:36.051Z,21.44
2022-09-01T21:35:39.624Z,21.60
2022-09-01T21:37:43.043Z,21.44
2022-09-01T21:39:47.000Z,21.50
2022-09-01T21:41:50.525Z,21.60
2022-09-01T21:43:53.980Z,21.35
2022-09-01T21:45:59.199Z,21.35
2022-09-01T21:48:03.743Z,21.23
2022-09-01T21:50:08.096Z,21.22
2022-09-01T21:52:11.552Z,21.28
2022-09-01T21:54:14.941Z,21.29
2022-09-01T21:56:18.349Z,20.98
2022-09-01T21:58:29.205Z,21.30
2022-09-01T22:00:35.063Z,21.19
2022-09-01T22:02:40.688Z,21.22
2022-09-01T22:04:44.327Z,21.12
2022-09-01T22:06:52.075Z,21.12
2022-09-01T22:08:55.972Z,21.14
2022-09-01T22:10:59.803Z,21.18
2022-09-01T22:13:03.832Z,21.09
2022-09-01T22:15:10.175Z,21.04
2022-09-01T22:17:13.612Z,21.06
2022-09-01T22:19:20.171Z,20.97
2022-09-01T22:21:24.551Z,20.97
2022-09-01T22:23:29.874Z,20.89
2022-09-01T22:25:34.347Z,20.92
2022-09-01T22:27:38.088Z,20.99
2022-09-01T22:29:41.508Z,20.87
2022-09-01T22:31:45.560Z,20.75
2022-09-01T22:33:49.422Z,20.83
2022-09-01T22:35:56.320Z,20.82
2022-09-01T22:37:59.789Z,20.79
2022-09-01T22:40:03.468Z,20.82
2022-09-01T22:42:07.217Z,20.75
2022-09-01T22:44:11.348Z,20.71
2022-09-01T22:46:15.107Z,20.73
2022-09-01T22:48:20.564Z,20.70
2022-09-01T22:50:23.998Z,20.75
2022-09-01T22:52:29.951Z,20.77
2022-09-01T22:54:33.474Z,20.72
2022-09-01T22:56:39.014Z,20.90
2022-09-01T22:58:42.996Z,20.84
2022-09-01T23:00:49.903Z,20.73
2022-09-01T23:02:53.380Z,20.70
2022-09-01T23:04:56.801Z,20.61
2022-09-01T23:07:00.592Z,20.60
2022-09-01T23:09:05.712Z,20.62
2022-09-01T23:11:09.898Z,20.66
2022-09-01T23:13:13.331Z,20.59
2022-09-01T23:15:18.645Z,20.58
2022-09-01T23:17:22.281Z,20.55
2022-09-01T23:19:25.821Z,20.52
2022-09-01T23:21:32.941Z,20.46
2022-09-01T23:23:36.979Z,20.59
2022-09-01T23:25:43.808Z,20.60
2022-09-01T23:27:47.876Z,20.59
2022-09-01T23:29:51.263Z,20.55
2022-09-01T23:31:54.820Z,20.47
2022-09-01T23:33:58.912Z,20.44
2022-09-01T23:36:02.712Z,20.57
2022-09-01T23:38:06.084Z,20.54
2022-09-01T23:40:10.535Z,20.51
2022-09-01T23:42:15.390Z,20.39
2022-09-01T23:44:18.789Z,20.47
2022-09-01T23:46:24.170Z,20.42
2022-09-01T23:48:28.234Z,20.33
2022-09-01T23:50:31.828Z,20.36
2022-09-01T23:52:35.641Z,20.26
2022-09-01T23:54:39.132Z,20.25
2022-09-01T23:56:42.987Z,20.29
2022-09-01T23:58:48.822Z,20.23
